Date,TemperatureHighF,TemperatureAvgF,TemperatureLowF,DewpointHighF,DewpointAvgF,DewpointLowF,HumidityHigh,HumidityAvg,HumidityLow,PressureMaxIn,PressureMinIn,WindSpeedMaxMPH,WindSpeedAvgMPH,GustSpeedMaxMPH,PrecipitationSumIn
2014-1-1,22,18,14,18,12,8,93,74,59,29.49,29.33,12,4,13,0.00
2014-1-2,15,11,4,14,10,4,93,92,88,29.38,29.02,20,8,20,0.00
2014-1-3,6,3,-3,4,-1,-6,92,80,65,29.53,29.04,21,6,22,0.00
2014-1-4,32,18,-2,14,7,-6,79,58,42,29.45,29.17,22,8,22,0.00
2014-1-5,42,30,21,41,22,11,96,69,55,29.29,28.64,14,4,15,0.14
2014-1-6,46,28,3,46,21,-6,97,73,50,28.92,28.44,33,10,33,0.08
2014-1-7,5,2,-3,0,-8,-13,65,57,46,29.38,28.91,34,9,39,0.00
2014-1-8,20,13,4,14,5,-6,77,65,49,29.56,29.38,17,4,17,0.00
2014-1-9,28,20,11,18,13,8,93,72,49,29.77,29.53,14,3,14,0.00
2014-1-10,39,32,24,36,30,18,95,89,71,29.53,29.16,19,5,19,0.07
2014-1-11,49,44,37,48,42,33,97,92,65,29.16,28.44,31,7,31,0.26
2014-1-12,39,35,30,35,30,26,89,80,74,29.13,28.62,26,6,26,0.00
2014-1-13,52,41,30,37,31,26,93,68,44,29.11,28.87,21,7,21,0.00
2014-1-14,46,40,29,43,37,26,96,88,74,28.99,28.83,13,3,14,0.03
2014-1-15,40,33,29,37,30,21,95,85,71,29.12,28.94,14,3,15,0.00
2014-1-16,35,29,22,24,20,16,84,66,50,29.12,28.98,11,3,11,0.00
2014-1-17,42,33,28,28,24,21,90,68,50,29.00,28.93,19,4,21,0.00
2014-1-18,31,23,14,29,20,11,95,85,70,29.02,28.90,20,4,20,0.00
2014-1-19,33,24,13,24,18,11,92,75,57,28.98,28.62,21,4,21,0.00
2014-1-20,34,24,11,31,20,4,95,80,69,29.12,28.65,19,5,19,0.00
2014-1-21,11,5,0,8,2,0,92,81,71,29.24,29.12,16,5,16,0.00
2014-1-22,6,0,-7,4,-1,-6,92,81,63,29.20,29.09,11,4,14,0.00
2014-1-23,14,7,4,11,4,0,90,79,61,29.41,29.12,14,4,14,0.00
2014-1-24,17,10,-2,4,1,-6,82,62,44,29.44,28.86,26,7,27,0.00
2014-1-25,27,20,10,23,13,0,93,68,42,28.86,28.39,27,10,29,0.00
2014-1-26,24,13,5,21,8,-6,87,74,51,28.90,28.63,20,6,20,0.00
2014-1-27,34,18,4,29,10,-6,94,68,48,29.23,28.44,31,8,35,0.04
2014-1-28,13,5,-1,4,-5,-13,76,56,42,29.46,29.23,22,5,22,0.00
2014-1-29,17,8,-4,4,-3,-13,75,57,42,29.37,29.15,21,5,21,0.00
2014-1-30,29,17,4,11,6,0,76,56,40,29.44,29.02,31,7,31,0.00
2014-1-31,37,29,22,24,18,8,76,60,47,29.31,29.06,22,4,24,0.00